Time;durP1;ratioP1;P1;durP2;ratioP2;P2;SDS_P1;SDS_P2;PMS_P1;PMS_P2;Temp;Humidity;BMP_temperature;BMP_pressure;BME280_temperature;BME280_humidity;BME280_pressure;Samples;Min_cycle;Max_cycle;Signal;HPM_P1;HPM_P2
2023/03/28 00:01:00;;;;;;;13.65;7.03;;;1.30;99.90;;;;;;5074168;28;20011;-50
2023/03/28 00:03:28;;;;;;;13.55;7.43;;;1.30;99.90;;;;;;5084224;28;20070;-54
2023/03/28 00:05:56;;;;;;;12.55;6.40;;;1.30;99.90;;;;;;5084646;28;20060;-55
2023/03/28 00:08:23;;;;;;;11.90;6.30;;;1.30;99.90;;;;;;5078531;28;20032;-54
2023/03/28 00:10:50;;;;;;;8.40;4.57;;;1.30;99.90;;;;;;5090407;28;20062;-52
2023/03/28 00:13:18;;;;;;;10.98;4.32;;;1.20;99.90;;;;;;5079628;28;20127;-52
2023/03/28 00:15:45;;;;;;;13.80;5.85;;;1.20;99.90;;;;;;5088253;28;20123;-50
2023/03/28 00:18:13;;;;;;;9.07;5.07;;;1.20;99.90;;;;;;5090949;28;20127;-55
2023/03/28 00:20:42;;;;;;;8.98;5.22;;;1.20;99.90;;;;;;5090972;28;20412;-52
2023/03/28 00:23:10;;;;;;;9.65;4.63;;;1.20;99.90;;;;;;5080320;28;20055;-53
2023/03/28 00:25:40;;;;;;;11.00;4.95;;;1.20;99.90;;;;;;5088004;28;20043;-53
2023/03/28 00:28:07;;;;;;;6.90;4.20;;;1.20;99.90;;;;;;5091458;28;20058;-54
2023/03/28 00:30:34;;;;;;;8.27;4.13;;;1.00;99.90;;;;;;5066625;28;20550;-50
2023/03/28 00:33:03;;;;;;;;;;;1.20;99.90;;;;;;5084437;28;20040;-54
2023/03/28 00:35:31;;;;;;;6.43;4.10;;;1.20;99.90;;;;;;5089356;28;19924;-50
2023/03/28 00:37:58;;;;;;;11.25;4.47;;;1.20;99.90;;;;;;5056759;28;20048;-50
2023/03/28 00:40:25;;;;;;;6.75;3.85;;;1.30;99.90;;;;;;5072305;28;20052;-51
2023/03/28 00:42:52;;;;;;;;;;;1.30;99.90;;;;;;5073740;28;20101;-50
2023/03/28 00:45:23;;;;;;;8.43;3.33;;;1.10;99.90;;;;;;5091103;28;19920;-50
2023/03/28 00:48:00;;;;;;;4.72;2.97;;;1.10;99.90;;;;;;5083126;28;20496;-51
2023/03/28 00:50:35;;;;;;;4.40;2.40;;;1.10;99.90;;;;;;5073368;28;20044;-50
2023/03/28 00:53:08;;;;;;;5.07;3.10;;;1.10;99.90;;;;;;5085175;28;20047;-49
2023/03/28 00:55:54;;;;;;;4.00;2.92;;;1.10;99.90;;;;;;5058630;28;20044;-49
2023/03/28 00:58:25;;;;;;;5.18;2.78;;;1.10;99.90;;;;;;5073945;28;20820;-50
2023/03/28 01:00:53;;;;;;;3.90;2.20;;;1.10;99.90;;;;;;5073341;28;20056;-52
2023/03/28 01:03:26;;;;;;;3.53;2.08;;;1.10;99.90;;;;;;5070862;28;20059;-50
2023/03/28 01:05:55;;;;;;;5.78;2.63;;;1.10;99.90;;;;;;5073086;28;20093;-50
2023/03/28 01:08:34;;;;;;;8.73;2.78;;;1.10;99.90;;;;;;5071994;28;20077;-50
2023/03/28 01:11:02;;;;;;;4.88;2.65;;;1.20;99.90;;;;;;5072227;28;20040;-48
2023/03/28 01:13:32;;;;;;;6.72;2.70;;;1.10;99.90;;;;;;5079791;22;20036;-49
2023/03/28 01:16:01;;;;;;;5.20;2.30;;;1.20;99.90;;;;;;5069320;28;20040;-49
2023/03/28 01:18:33;;;;;;;4.22;2.63;;;1.10;99.90;;;;;;5060272;28;20044;-48
2023/03/28 01:21:18;;;;;;;4.43;2.33;;;1.10;99.90;;;;;;5072116;28;20070;-49
2023/03/28 01:24:24;;;;;;;4.03;2.42;;;1.10;99.90;;;;;;5052376;28;20140;-50
2023/03/28 01:27:13;;;;;;;4.10;2.30;;;1.20;99.90;;;;;;5086186;28;20063;-49
2023/03/28 01:29:59;;;;;;;7.20;2.95;;;1.20;99.90;;;;;;5072750;28;20500;-51
2023/03/28 01:32:51;;;;;;;;;;;1.20;99.90;;;;;;5070588;28;20048;-49
2023/03/28 01:35:41;;;;;;;5.47;2.92;;;1.30;99.90;;;;;;5046137;28;19925;-49
2023/03/28 01:38:18;;;;;;;6.72;3.10;;;1.30;99.90;;;;;;5072282;28;20135;-49
2023/03/28 01:40:56;;;;;;;7.13;2.70;;;1.40;99.90;;;;;;5055932;28;20106;-53
2023/03/28 01:43:23;;;;;;;7.22;3.05;;;1.20;99.90;;;;;;5071757;28;20043;-50
2023/03/28 01:46:05;;;;;;;8.00;3.78;;;1.20;99.90;;;;;;5073272;28;20417;-54
2023/03/28 01:48:49;;;;;;;6.07;2.78;;;1.30;99.90;;;;;;5051081;28;20048;-50
2023/03/28 01:51:28;;;;;;;7.05;3.10;;;1.20;99.90;;;;;;5054433;28;20068;-51
2023/03/28 01:54:14;;;;;;;6.97;3.30;;;1.20;99.90;;;;;;5071598;28;20401;-51
2023/03/28 01:56:50;;;;;;;5.78;3.25;;;1.20;99.90;;;;;;5073269;28;20087;-52
2023/03/28 01:59:40;;;;;;;6.90;3.70;;;1.30;99.90;;;;;;5071757;28;20135;-50
2023/03/28 02:02:42;;;;;;;5.95;3.53;;;1.20;99.90;;;;;;5073223;28;20048;-51
2023/03/28 02:05:31;;;;;;;7.85;4.05;;;1.30;99.90;;;;;;5089910;28;20421;-51
2023/03/28 02:08:01;;;;;;;10.98;4.28;;;1.30;99.90;;;;;;5056079;28;20053;-50
2023/03/28 02:10:41;;;;;;;6.43;3.83;;;1.20;99.90;;;;;;5055700;28;20123;-51
2023/03/28 02:13:37;;;;;;;7.15;3.75;;;1.10;99.90;;;;;;5063526;28;20044;-51
2023/03/28 02:16:35;;;;;;;5.50;3.58;;;1.20;99.90;;;;;;5073084;28;20059;-51
2023/03/28 02:19:21;;;;;;;9.02;4.18;;;1.20;99.90;;;;;;5060805;28;20060;-50
2023/03/28 02:22:15;;;;;;;9.55;4.93;;;1.30;99.90;;;;;;5051420;28;20144;-50
2023/03/28 02:25:07;;;;;;;6.05;3.28;;;1.20;99.90;;;;;;5057659;28;20563;-51
2023/03/28 02:27:56;;;;;;;8.77;4.20;;;1.20;99.90;;;;;;5073293;28;20055;-50
2023/03/28 02:30:35;;;;;;;8.45;3.28;;;1.20;99.90;;;;;;5057371;28;20657;-49
2023/03/28 02:33:07;;;;;;;9.35;3.47;;;1.20;99.90;;;;;;5072528;28;20106;-51
2023/03/28 02:35:58;;;;;;;8.70;3.40;;;1.20;99.90;;;;;;5049971;28;20048;-51
2023/03/28 02:38:53;;;;;;;6.63;3.75;;;1.30;99.90;;;;;;5081922;28;20044;-50
2023/03/28 02:41:28;;;;;;;8.98;4.40;;;1.40;99.90;;;;;;5073445;28;20040;-50
2023/03/28 02:44:11;;;;;;;7.15;4.07;;;1.40;99.90;;;;;;5072116;28;20036;-50
2023/03/28 02:46:39;;;;;;;6.57;3.63;;;1.40;99.90;;;;;;5072417;28;20075;-50
2023/03/28 02:49:26;;;;;;;8.02;4.22;;;1.40;99.90;;;;;;5071442;28;20433;-51
2023/03/28 02:52:20;;;;;;;7.22;4.15;;;1.40;99.90;;;;;;5063638;28;20575;-51
2023/03/28 02:55:16;;;;;;;8.30;4.30;;;1.30;99.90;;;;;;5054349;28;20098;-51
2023/03/28 02:58:20;;;;;;;10.38;4.93;;;1.20;99.90;;;;;;5055613;28;20072;-53
2023/03/28 03:00:48;;;;;;;6.63;4.03;;;1.20;99.90;;;;;;5072829;28;20681;-51
2023/03/28 03:03:16;;;;;;;6.22;3.28;;;1.20;99.90;;;;;;5060612;28;20493;-52
2023/03/28 03:05:43;;;;;;;8.00;4.35;;;1.20;99.90;;;;;;5053215;28;20033;-51
2023/03/28 03:08:10;;;;;;;8.30;4.57;;;1.20;99.90;;;;;;5046958;28;20459;-50
2023/03/28 03:10:37;;;;;;;8.50;5.13;;;1.20;99.90;;;;;;5053170;28;20397;-53
2023/03/28 03:13:04;;;;;;;11.50;5.38;;;1.20;99.90;;;;;;5068375;28;20485;-50
2023/03/28 03:15:34;;;;;;;8.38;4.53;;;1.10;99.90;;;;;;5052626;28;20041;-54
2023/03/28 03:18:16;;;;;;;13.77;5.60;;;1.10;99.90;;;;;;5054807;28;20087;-50
2023/03/28 03:20:46;;;;;;;8.93;4.95;;;1.10;99.90;;;;;;5086669;28;20053;-50
2023/03/28 03:23:13;;;;;;;12.95;5.50;;;1.10;99.90;;;;;;5053321;28;20091;-50
2023/03/28 03:25:41;;;;;;;14.02;5.07;;;1.10;99.90;;;;;;5050601;28;20954;-51
2023/03/28 03:28:18;;;;;;;8.60;5.07;;;1.10;99.90;;;;;;5054509;28;20523;-50
2023/03/28 03:30:46;;;;;;;14.15;5.60;;;1.10;99.90;;;;;;5061006;28;20405;-54
2023/03/28 03:33:31;;;;;;;12.60;5.28;;;1.10;99.90;;;;;;5073100;28;20048;-52
2023/03/28 03:36:03;;;;;;;9.35;5.13;;;1.20;99.90;;;;;;5070668;28;20049;-53
2023/03/28 03:38:31;;;;;;;12.32;5.75;;;1.20;99.90;;;;;;5070850;28;20055;-50
2023/03/28 03:41:00;;;;;;;14.07;5.53;;;1.20;99.90;;;;;;5072502;28;20044;-51
2023/03/28 03:43:27;;;;;;;10.55;5.25;;;1.20;99.90;;;;;;5071565;28;20048;-50
2023/03/28 03:45:55;;;;;;;;;;;1.20;99.90;;;;;;5057373;28;20044;-51
2023/03/28 03:48:22;;;;;;;10.30;5.28;;;1.20;99.90;;;;;;5051727;28;19942;-50
2023/03/28 03:50:54;;;;;;;11.90;5.43;;;1.30;99.90;;;;;;5051313;28;20037;-50
2023/03/28 03:53:21;;;;;;;7.15;3.42;;;1.30;99.90;;;;;;5052648;28;20260;-51
2023/03/28 03:56:00;;;;;;;9.55;5.13;;;1.30;99.90;;;;;;5053264;28;20040;-51
2023/03/28 03:58:33;;;;;;;12.13;6.13;;;1.40;99.90;;;;;;5052558;28;20094;-49
2023/03/28 04:01:04;;;;;;;14.85;5.88;;;1.40;99.90;;;;;;5069541;28;20047;-53
2023/03/28 04:03:36;;;;;;;10.00;5.72;;;1.40;99.90;;;;;;5069590;28;20501;-49
2023/03/28 04:06:04;;;;;;;10.48;5.43;;;1.40;99.90;;;;;;5053994;28;20054;-49
2023/03/28 04:08:32;;;;;;;14.95;5.15;;;1.40;99.90;;;;;;5070024;28;20447;-51
2023/03/28 04:10:59;;;;;;;9.27;4.78;;;1.40;99.90;;;;;;5052589;28;20045;-48
2023/03/28 04:13:31;;;;;;;7.43;4.88;;;1.40;99.90;;;;;;5063951;28;20040;-49
2023/03/28 04:16:01;;;;;;;12.50;5.32;;;1.30;99.90;;;;;;5069734;28;20044;-51
2023/03/28 04:18:49;;;;;;;13.25;5.22;;;1.30;99.90;;;;;;5053609;28;20040;-50
2023/03/28 04:21:24;;;;;;;13.48;5.72;;;1.20;99.90;;;;;;5069839;28;20429;-51
2023/03/28 04:23:53;;;;;;;12.55;6.15;;;1.10;99.90;;;;;;5056185;28;20051;-48
2023/03/28 04:26:36;;;;;;;8.75;5.38;;;1.10;99.90;;;;;;5062106;28;20049;-52
2023/03/28 04:29:08;;;;;;;11.80;5.70;;;1.10;99.90;;;;;;5086555;28;20090;-52
2023/03/28 04:31:38;;;;;;;12.43;5.57;;;1.20;99.90;;;;;;5054631;28;20044;-51
2023/03/28 04:34:15;;;;;;;10.82;5.57;;;1.20;99.90;;;;;;5069317;28;20040;-51
2023/03/28 04:37:00;;;;;;;14.77;5.25;;;1.10;99.90;;;;;;5070292;28;20102;-52
2023/03/28 04:39:30;;;;;;;13.05;5.82;;;1.00;99.90;;;;;;5068353;28;20032;-48
2023/03/28 04:42:16;;;;;;;12.98;5.82;;;1.10;99.90;;;;;;5071638;28;20120;-50
2023/03/28 04:45:03;;;;;;;12.65;5.75;;;1.00;99.90;;;;;;5053240;28;20041;-50
2023/03/28 04:47:30;;;;;;;9.98;5.57;;;1.00;99.90;;;;;;5048749;28;20457;-50
2023/03/28 04:49:57;;;;;;;10.77;5.82;;;1.00;99.90;;;;;;5050490;28;20146;-49
2023/03/28 04:52:25;;;;;;;11.70;5.85;;;1.00;99.90;;;;;;5049716;28;20081;-50
2023/03/28 04:54:52;;;;;;;8.55;4.30;;;0.90;99.90;;;;;;5051525;28;20045;-51
2023/03/28 04:57:21;;;;;;;13.25;6.05;;;1.00;99.90;;;;;;5068388;28;20047;-55
2023/03/28 04:59:52;;;;;;;13.15;6.25;;;0.90;99.90;;;;;;5051800;28;20080;-50
2023/03/28 05:02:39;;;;;;;12.57;6.35;;;1.00;99.90;;;;;;5070146;28;20044;-54
2023/03/28 05:05:10;;;;;;;12.10;6.85;;;1.00;99.90;;;;;;5052710;28;20064;-50
2023/03/28 05:07:37;;;;;;;14.98;6.18;;;1.10;99.90;;;;;;5071222;28;20044;-51
2023/03/28 05:10:06;;;;;;;10.73;6.38;;;1.10;99.90;;;;;;5055424;28;20158;-53
2023/03/28 05:12:37;;;;;;;12.93;6.63;;;1.10;99.90;;;;;;5069589;28;20037;-52
2023/03/28 05:15:05;;;;;;;17.30;7.10;;;1.00;99.90;;;;;;5052362;28;20045;-54
2023/03/28 05:17:42;;;;;;;13.10;6.53;;;1.00;99.90;;;;;;5052687;28;20040;-51
2023/03/28 05:20:18;;;;;;;16.30;7.60;;;1.00;99.90;;;;;;5056829;28;20039;-50
2023/03/28 05:23:16;;;;;;;13.27;6.32;;;1.00;99.90;;;;;;5058564;28;20040;-54
2023/03/28 05:25:51;;;;;;;15.68;7.28;;;1.00;99.90;;;;;;5066947;28;20098;-50
2023/03/28 05:28:20;;;;;;;14.50;7.05;;;1.10;99.90;;;;;;5071321;28;20132;-51
2023/03/28 05:30:50;;;;;;;16.30;7.80;;;1.10;99.90;;;;;;5067865;28;20044;-51
2023/03/28 05:33:17;;;;;;;;;;;1.10;99.90;;;;;;5044604;28;20043;-49
2023/03/28 05:35:45;;;;;;;12.52;6.25;;;1.10;99.90;;;;;;5052082;28;19920;-50
2023/03/28 05:38:13;;;;;;;;;;;1.10;99.90;;;;;;5086278;28;20073;-50
2023/03/28 05:40:41;;;;;;;14.23;6.35;;;1.10;99.90;;;;;;5064434;28;19931;-50
2023/03/28 05:43:08;;;;;;;14.68;7.35;;;1.10;99.90;;;;;;5054529;28;20409;-50
2023/03/28 05:45:35;;;;;;;11.48;6.35;;;1.20;99.90;;;;;;5069035;28;20452;-51
2023/03/28 05:48:08;;;;;;;13.38;6.32;;;1.20;99.90;;;;;;5068269;28;20435;-49
2023/03/28 05:50:35;;;;;;;12.13;6.22;;;1.20;99.90;;;;;;5069285;28;20099;-49
2023/03/28 05:53:05;;;;;;;15.45;6.47;;;1.20;99.90;;;;;;5067557;28;20094;-51
2023/03/28 05:55:32;;;;;;;10.98;6.43;;;1.20;99.90;;;;;;5052559;28;20045;-51
2023/03/28 05:58:02;;;;;;;15.98;6.47;;;1.20;99.90;;;;;;5052403;28;20543;-54
2023/03/28 06:00:38;;;;;;;11.70;6.70;;;1.20;99.90;;;;;;5051477;28;20066;-51
2023/03/28 06:03:06;;;;;;;10.60;6.60;;;1.30;99.90;;;;;;5068820;28;20131;-50
2023/03/28 06:05:36;;;;;;;13.50;6.68;;;1.20;99.90;;;;;;5052456;28;20437;-54
2023/03/28 06:08:10;;;;;;;13.13;7.43;;;1.20;99.90;;;;;;5052387;28;20604;-49
2023/03/28 06:10:37;;;;;;;12.63;7.22;;;1.20;99.90;;;;;;5069733;28;20040;-49
2023/03/28 06:13:33;;;;;;;12.75;7.05;;;1.30;99.90;;;;;;5040103;28;20540;-51
2023/03/28 06:16:01;;;;;;;14.65;7.18;;;1.30;99.90;;;;;;5042763;28;20056;-52
2023/03/28 06:18:31;;;;;;;16.73;7.38;;;1.40;99.90;;;;;;5070943;28;20048;-49
2023/03/28 06:20:57;;;;;;;17.08;7.45;;;1.50;99.90;;;;;;5071763;28;20143;-50
2023/03/28 06:23:25;;;;;;;15.60;7.55;;;1.70;99.90;;;;;;5071750;28;20068;-54
2023/03/28 06:25:51;;;;;;;10.73;6.65;;;1.70;99.90;;;;;;5072653;28;20063;-50
2023/03/28 06:28:19;;;;;;;12.55;7.00;;;1.80;99.90;;;;;;5063814;28;20622;-50
2023/03/28 06:31:05;;;;;;;14.73;7.88;;;2.00;99.90;;;;;;5074347;28;20059;-52
2023/03/28 06:33:32;;;;;;;16.48;7.40;;;2.10;99.90;;;;;;5072541;28;20116;-50
2023/03/28 06:35:58;;;;;;;16.30;8.05;;;2.10;99.90;;;;;;5072001;28;20135;-54
2023/03/28 06:38:29;;;;;;;18.20;7.03;;;2.10;99.90;;;;;;5054932;28;20473;-52
2023/03/28 06:40:56;;;;;;;23.85;9.48;;;2.00;99.90;;;;;;5072557;28;20041;-52
2023/03/28 06:43:23;;;;;;;11.68;5.47;;;1.80;99.90;;;;;;5071730;28;20050;-49
2023/03/28 06:46:05;;;;;;;10.63;4.55;;;1.70;99.90;;;;;;5064634;28;20497;-50
2023/03/28 06:48:33;;;;;;;7.15;4.68;;;1.70;99.90;;;;;;5054958;28;20049;-51
2023/03/28 06:51:21;;;;;;;23.48;8.63;;;1.70;99.90;;;;;;5057051;28;20655;-51
2023/03/28 06:53:47;;;;;;;17.23;8.50;;;1.80;99.90;;;;;;5047773;28;20420;-49
2023/03/28 06:56:17;;;;;;;17.25;7.38;;;1.90;99.90;;;;;;5041192;28;20140;-50
2023/03/28 06:58:43;;;;;;;12.77;6.82;;;1.90;99.90;;;;;;5066985;28;20044;-51
2023/03/28 07:01:13;;;;;;;16.73;6.65;;;1.60;99.90;;;;;;5054283;28;20056;-52
2023/03/28 07:04:09;;;;;;;17.20;6.28;;;1.70;99.90;;;;;;5064626;28;20532;-50
2023/03/28 07:06:37;;;;;;;14.15;6.78;;;1.90;99.90;;;;;;5071805;28;20044;-50
2023/03/28 07:09:04;;;;;;;10.82;6.30;;;2.00;99.90;;;;;;5071273;28;20091;-51
2023/03/28 07:11:41;;;;;;;11.70;6.30;;;2.10;99.90;;;;;;5085945;22;20048;31
2023/03/28 07:14:08;;;;;;;14.70;6.32;;;2.30;99.90;;;;;;5023308;28;20042;-48
2023/03/28 07:16:35;;;;;;;13.95;6.50;;;2.40;99.90;;;;;;5012628;28;20038;-47
2023/03/28 07:19:02;;;;;;;12.57;6.55;;;2.60;99.90;;;;;;4993480;28;20136;-48
2023/03/28 07:21:33;;;;;;;44.05;20.50;;;2.70;99.90;;;;;;4995283;28;20061;-50
2023/03/28 07:24:02;;;;;;;21.02;10.65;;;2.80;99.90;;;;;;5034057;28;20071;-48
2023/03/28 07:26:42;;;;;;;9.13;5.90;;;3.10;99.90;;;;;;5034845;28;20474;-48
2023/03/28 07:29:08;;;;;;;7.57;4.43;;;3.10;99.90;;;;;;5033494;28;20052;-48
2023/03/28 07:31:35;;;;;;;6.20;4.13;;;3.40;99.90;;;;;;5034220;28;20041;-49
2023/03/28 07:34:02;;;;;;;12.07;6.45;;;3.40;99.90;;;;;;5049367;28;20049;-48
2023/03/28 07:36:29;;;;;;;8.98;5.18;;;3.40;99.90;;;;;;5044676;28;20091;-48
2023/03/28 07:39:05;;;;;;;8.48;5.38;;;3.10;99.90;;;;;;5050227;28;20099;-46
2023/03/28 07:41:32;;;;;;;8.07;4.93;;;3.00;99.90;;;;;;5050051;28;20132;-49
2023/03/28 07:43:59;;;;;;;5.25;3.15;;;2.90;99.90;;;;;;5033867;28;20053;-48
2023/03/28 07:46:26;;;;;;;11.88;6.10;;;3.10;99.90;;;;;;5051415;28;20052;-48
2023/03/28 07:48:54;;;;;;;12.00;6.72;;;3.20;99.90;;;;;;5046207;28;20095;-49
2023/03/28 07:51:21;;;;;;;14.88;6.82;;;3.20;99.90;;;;;;5051033;28;20516;-49
2023/03/28 07:53:48;;;;;;;16.48;7.80;;;3.30;99.90;;;;;;5034105;28;20115;-48
2023/03/28 07:56:16;;;;;;;18.88;8.43;;;3.40;99.90;;;;;;5034335;28;20523;-50
2023/03/28 07:59:06;;;;;;;23.42;8.88;;;3.40;99.90;;;;;;5049412;28;20051;-51
2023/03/28 08:01:33;;;;;;;16.02;7.07;;;3.40;99.90;;;;;;5032850;28;20044;-48
2023/03/28 08:04:02;;;;;;;12.63;5.97;;;3.50;99.90;;;;;;5033852;28;20052;-48
2023/03/28 08:06:39;;;;;;;;;;;3.60;99.90;;;;;;5033702;28;20136;-48
2023/03/28 08:09:08;;;;;;;17.08;8.32;;;3.90;99.90;;;;;;5033298;28;20419;-48
2023/03/28 08:11:44;;;;;;;13.38;7.10;;;4.00;99.90;;;;;;5033599;28;20048;-49
2023/03/28 08:14:17;;;;;;;10.27;5.82;;;4.00;99.90;;;;;;5033766;28;20053;-48
2023/03/28 08:16:44;;;;;;;11.35;6.68;;;4.10;99.90;;;;;;5050537;28;20095;-48
2023/03/28 08:19:11;;;;;;;10.30;5.25;;;4.10;99.90;;;;;;5031732;28;20519;-49
2023/03/28 08:22:01;;;;;;;15.48;5.85;;;4.00;99.90;;;;;;5052059;28;20172;-48
2023/03/28 08:24:30;;;;;;;11.82;5.07;;;3.90;99.90;;;;;;5033699;28;20069;-49
2023/03/28 08:27:10;;;;;;;9.25;6.30;;;3.90;99.90;;;;;;5049242;28;20056;-48
2023/03/28 08:29:38;;;;;;;8.05;5.35;;;3.70;99.90;;;;;;5049881;28;20061;-49
2023/03/28 08:32:06;;;;;;;10.50;5.63;;;3.60;99.90;;;;;;5050609;28;20587;-46
2023/03/28 08:34:34;;;;;;;6.88;4.68;;;3.70;99.90;;;;;;5032238;28;20471;-48
2023/03/28 08:37:07;;;;;;;9.13;5.05;;;3.80;99.90;;;;;;5034100;28;20064;-47
2023/03/28 08:39:36;;;;;;;7.18;4.18;;;3.80;99.90;;;;;;5033008;28;20106;-48
2023/03/28 08:42:18;;;;;;;14.27;7.45;;;3.80;99.90;;;;;;5033413;28;20048;-48
2023/03/28 08:45:24;;;;;;;10.05;5.05;;;3.80;99.90;;;;;;5032207;28;20041;-51
2023/03/28 08:48:37;;;;;;;11.02;5.68;;;3.80;99.90;;;;;;5030604;28;20072;-49
2023/03/28 08:51:30;;;;;;;8.27;5.13;;;3.70;99.90;;;;;;4933430;29;20057;-48
2023/03/28 08:54:12;;;;;;;7.68;4.25;;;3.80;99.90;;;;;;5026430;28;20080;-48
2023/03/28 08:56:43;;;;;;;8.05;5.18;;;4.00;99.90;;;;;;5014056;28;20045;-49
2023/03/28 08:59:12;;;;;;;8.15;4.75;;;4.40;99.90;;;;;;5030048;28;20073;-49
2023/03/28 09:01:39;;;;;;;5.38;3.35;;;4.90;99.90;;;;;;5013879;28;20049;-50
2023/03/28 09:04:19;;;;;;;4.57;3.67;;;5.10;99.90;;;;;;5028040;28;20068;-49
2023/03/28 09:06:56;;;;;;;8.57;3.05;;;4.80;99.90;;;;;;5033040;28;20055;-48
2023/03/28 09:09:57;;;;;;;5.10;3.70;;;4.50;99.90;;;;;;5033052;28;20128;-47
2023/03/28 09:12:57;;;;;;;6.70;3.97;;;4.10;99.90;;;;;;5037797;28;20068;-48
2023/03/28 09:15:38;;;;;;;7.65;4.45;;;3.90;99.90;;;;;;5029456;28;20037;-48
2023/03/28 09:18:30;;;;;;;6.35;3.92;;;3.80;99.90;;;;;;5012902;28;20045;-48
2023/03/28 09:21:22;;;;;;;9.15;4.45;;;3.80;99.90;;;;;;5032293;28;20136;-47
2023/03/28 09:24:06;;;;;;;8.30;3.47;;;3.80;99.90;;;;;;5057274;28;20041;-49
2023/03/28 09:27:01;;;;;;;7.60;3.83;;;3.80;99.90;;;;;;5052291;28;20057;-48
2023/03/28 09:29:33;;;;;;;9.20;4.68;;;3.90;99.90;;;;;;5041164;28;20044;-48
2023/03/28 09:32:11;;;;;;;9.82;4.07;;;4.00;99.90;;;;;;5032901;28;20049;-48
2023/03/28 09:34:49;;;;;;;7.32;4.03;;;3.90;99.90;;;;;;5030709;28;20037;-48
2023/03/28 09:37:26;;;;;;;5.47;3.70;;;4.10;99.90;;;;;;5013443;28;20069;-48
2023/03/28 09:39:55;;;;;;;6.72;3.60;;;4.00;99.90;;;;;;5028294;28;20045;-48
2023/03/28 09:43:06;;;;;;;6.38;4.00;;;4.00;99.90;;;;;;5035341;28;20056;-50
2023/03/28 09:45:39;;;;;;;8.60;4.35;;;4.40;99.90;;;;;;5038727;28;20080;-48
2023/03/28 09:48:31;;;;;;;8.43;3.00;;;4.90;99.90;;;;;;5035581;28;20519;-48
2023/03/28 09:51:04;;;;;;;7.35;2.67;;;4.90;99.90;;;;;;5053547;28;20075;-49
2023/03/28 09:53:34;;;;;;;4.45;2.20;;;4.90;99.90;;;;;;5052202;28;20041;-48
2023/03/28 09:56:12;;;;;;;3.90;2.20;;;5.20;99.90;;;;;;5036711;28;20053;-50
2023/03/28 09:58:57;;;;;;;9.43;3.05;;;5.30;99.90;;;;;;5031461;28;20049;-48
2023/03/28 10:01:43;;;;;;;5.22;2.65;;;5.10;99.90;;;;;;5033034;28;20119;-49
2023/03/28 10:04:28;;;;;;;4.05;2.20;;;5.30;99.90;;;;;;5016926;28;20083;-48
2023/03/28 10:07:12;;;;;;;5.15;1.80;;;5.40;99.90;;;;;;5045232;28;20056;-49
2023/03/28 10:09:54;;;;;;;5.38;1.70;;;5.50;99.90;;;;;;5036491;28;20068;-48
2023/03/28 10:12:32;;;;;;;4.60;1.98;;;5.50;99.90;;;;;;5052653;28;20051;-48
2023/03/28 10:14:59;;;;;;;2.90;1.80;;;5.50;99.90;;;;;;5035760;28;20516;-48
2023/03/28 10:17:52;;;;;;;3.70;1.65;;;5.60;99.90;;;;;;5054071;28;20055;-49
2023/03/28 10:20:25;;;;;;;3.88;2.17;;;5.70;99.90;;;;;;5036050;28;20053;-49
2023/03/28 10:22:56;;;;;;;5.57;1.90;;;5.90;99.90;;;;;;5034299;28;20048;-46
2023/03/28 10:25:39;;;;;;;3.25;1.27;;;6.10;99.90;;;;;;5036049;28;20037;-48
2023/03/28 10:28:15;;;;;;;3.10;1.80;;;6.30;99.90;;;;;;5034407;28;20402;-47
2023/03/28 10:30:43;;;;;;;3.22;1.60;;;6.30;99.90;;;;;;5052740;28;20043;-47
2023/03/28 10:33:16;;;;;;;6.28;1.75;;;6.00;99.90;;;;;;5051740;28;20056;-46
2023/03/28 10:36:02;;;;;;;5.13;1.50;;;6.00;99.90;;;;;;5035842;28;20505;-50
2023/03/28 10:38:44;;;;;;;4.93;1.67;;;6.00;99.90;;;;;;5035329;28;20045;-49
2023/03/28 10:42:00;;;;;;;2.13;1.30;;;6.00;99.90;;;;;;5053492;28;20063;-49
2023/03/28 10:44:46;;;;;;;5.47;1.95;;;6.10;99.90;;;;;;5051244;28;20055;-48
2023/03/28 10:47:17;;;;;;;4.45;2.03;;;6.50;99.90;;;;;;5030177;28;20052;-46
2023/03/28 10:49:54;;;;;;;2.53;1.48;;;6.60;99.90;;;;;;5048483;28;20041;-47
2023/03/28 10:52:45;;;;;;;7.97;2.33;;;6.80;99.90;;;;;;5035229;28;20409;-47
2023/03/28 10:55:25;;;;;;;5.30;2.30;;;7.20;99.90;;;;;;5034459;28;20044;-47
2023/03/28 10:58:25;;;;;;;2.65;1.20;;;7.70;99.90;;;;;;5034218;28;20067;-47
2023/03/28 11:01:40;;;;;;;1.50;1.23;;;7.40;99.90;;;;;;5051819;28;20056;-47
2023/03/28 11:04:32;;;;;;;2.97;1.23;;;7.10;99.90;;;;;;4970876;28;20060;-46
2023/03/28 11:07:08;;;;;;;4.03;1.70;;;6.70;99.70;;;;;;5031520;28;20046;-48
2023/03/28 11:10:04;;;;;;;5.38;2.55;;;6.60;99.90;;;;;;5041985;28;20044;-46
2023/03/28 11:12:56;;;;;;;5.32;1.98;;;6.60;99.90;;;;;;5035297;28;20132;-48
2023/03/28 11:15:52;;;;;;;7.15;1.20;;;6.80;99.90;;;;;;5034966;28;20041;-48
2023/03/28 11:18:37;;;;;;;2.30;1.30;;;6.70;99.90;;;;;;5033342;28;20136;-48
2023/03/28 11:21:42;;;;;;;2.65;1.25;;;6.60;99.90;;;;;;5051680;28;20135;-49
2023/03/28 11:24:14;;;;;;;2.88;1.23;;;6.90;99.90;;;;;;5051356;28;20048;-48
2023/03/28 11:27:33;;;;;;;2.35;1.20;;;7.40;99.90;;;;;;5046096;28;20057;-48
2023/03/28 11:30:19;;;;;;;2.95;1.60;;;7.80;99.90;;;;;;5030388;28;20076;-48
2023/03/28 11:33:29;;;;;;;1.95;1.30;;;7.90;99.90;;;;;;5050074;28;20041;-48
2023/03/28 11:36:10;;;;;;;2.85;1.23;;;7.60;99.60;;;;;;5036066;28;20128;-49
2023/03/28 11:38:50;;;;;;;3.30;1.60;;;7.50;98.40;;;;;;5052458;28;20041;-50
2023/03/28 11:41:25;;;;;;;3.83;1.30;;;7.40;98.70;;;;;;5050122;28;20625;-48
2023/03/28 11:44:22;;;;;;;4.65;1.38;;;7.20;98.20;;;;;;5032771;28;20055;-49
2023/03/28 11:47:03;;;;;;;3.65;1.15;;;7.20;99.90;;;;;;5034474;28;20041;-48
2023/03/28 11:49:37;;;;;;;2.70;1.35;;;7.20;99.90;;;;;;5050508;28;20095;-45
2023/03/28 11:52:22;;;;;;;2.38;1.30;;;7.30;97.10;;;;;;5050266;28;20040;-49
2023/03/28 11:55:14;;;;;;;1.60;1.00;;;7.20;98.80;;;;;;5026029;28;20094;-48
2023/03/28 11:57:55;;;;;;;2.42;1.23;;;7.00;96.30;;;;;;5035559;28;20041;-49
2023/03/28 12:00:30;;;;;;;4.72;1.20;;;7.00;99.90;;;;;;5030744;28;20136;-48
2023/03/28 12:03:28;;;;;;;2.25;1.00;;;7.20;99.50;;;;;;5047473;28;20083;-47
2023/03/28 12:05:58;;;;;;;4.72;1.40;;;7.40;98.60;;;;;;5013542;28;20057;-48
2023/03/28 12:08:40;;;;;;;5.90;1.40;;;7.50;98.10;;;;;;5030272;28;20037;-48
2023/03/28 12:11:13;;;;;;;1.85;1.13;;;7.40;98.30;;;;;;5032397;28;20069;-48
2023/03/28 12:14:18;;;;;;;6.75;1.17;;;7.10;98.10;;;;;;5017162;28;20041;-48
2023/03/28 12:16:51;;;;;;;2.50;1.00;;;6.90;96.80;;;;;;5004911;28;20065;-48
2023/03/28 12:19:39;;;;;;;1.08;0.93;;;7.00;99.90;;;;;;5024429;28;20420;-48
2023/03/28 12:22:18;;;;;;;3.05;1.65;;;7.40;97.90;;;;;;5033890;28;20044;-50
2023/03/28 12:25:00;;;;;;;3.67;1.15;;;7.30;97.20;;;;;;5034163;28;20123;-48
2023/03/28 12:27:54;;;;;;;2.63;1.02;;;7.00;95.60;;;;;;5049022;28;20048;-48
2023/03/28 12:31:00;;;;;;;3.42;1.38;;;7.40;98.80;;;;;;5020204;28;20041;-48
2023/03/28 12:33:37;;;;;;;4.25;1.30;;;7.40;94.70;;;;;;5026911;28;20037;-48
2023/03/28 12:36:35;;;;;;;2.80;1.45;;;7.20;95.10;;;;;;5029455;28;20053;-49
2023/03/28 12:39:21;;;;;;;2.17;1.05;;;7.50;96.00;;;;;;5030452;28;20080;-48
2023/03/28 12:41:50;;;;;;;4.22;1.20;;;8.00;97.50;;;;;;5042827;28;20482;-48
2023/03/28 12:44:26;;;;;;;3.60;1.13;;;8.20;95.30;;;;;;5051409;28;20132;-49
2023/03/28 12:47:06;;;;;;;2.67;1.33;;;8.20;97.10;;;;;;5033492;28;20486;-47
2023/03/28 12:49:45;;;;;;;3.33;1.15;;;8.30;97.90;;;;;;5044670;28;20395;-47
2023/03/28 12:52:24;;;;;;;2.88;1.45;;;8.20;96.50;;;;;;5065632;28;20119;-49
2023/03/28 12:55:02;;;;;;;2.78;1.30;;;8.10;95.30;;;;;;5048028;28;20543;-48
2023/03/28 12:57:47;;;;;;;5.38;1.27;;;7.80;95.90;;;;;;5049805;28;20045;-48
2023/03/28 13:00:40;;;;;;;3.85;1.20;;;7.50;96.50;;;;;;5050788;28;20174;-48
2023/03/28 13:03:38;;;;;;;3.95;1.20;;;7.30;98.20;;;;;;5051446;28;20048;-48
2023/03/28 13:06:31;;;;;;;3.95;1.25;;;7.20;97.30;;;;;;5049930;28;20049;-49
2023/03/28 13:09:29;;;;;;;2.10;1.35;;;7.00;96.30;;;;;;5032937;28;20490;-50
2023/03/28 13:15:14;;;;;;;1.90;1.00;;;6.60;97.10;;;;;;5087839;28;20080;-49
2023/03/28 13:18:07;;;;;;;2.47;1.13;;;6.40;96.90;;;;;;5111871;28;20054;-50
2023/03/28 13:20:44;;;;;;;1.90;1.30;;;6.30;96.30;;;;;;5099012;28;20504;-48
2023/03/28 13:23:16;;;;;;;6.97;1.60;;;6.30;98.50;;;;;;5098066;28;20051;-49
2023/03/28 13:25:53;;;;;;;2.70;1.30;;;6.50;98.10;;;;;;5097713;28;20048;-49
2023/03/28 13:28:28;;;;;;;2.03;1.23;;;6.80;96.10;;;;;;5089989;28;20543;-51
2023/03/28 13:31:19;;;;;;;5.00;1.10;;;7.00;95.30;;;;;;5091587;28;20097;-50
2023/03/28 13:33:57;;;;;;;3.92;1.20;;;6.90;94.30;;;;;;5084723;28;20037;-51
2023/03/28 13:36:31;;;;;;;3.80;1.02;;;6.90;96.00;;;;;;5079393;28;20043;-52
2023/03/28 13:39:07;;;;;;;1.75;0.90;;;6.80;95.40;;;;;;5066054;28;20045;-49
2023/03/28 13:41:39;;;;;;;1.63;0.90;;;6.80;96.50;;;;;;5061890;28;20109;-53
2023/03/28 13:44:16;;;;;;;3.75;1.00;;;6.90;95.80;;;;;;5070312;28;20162;-50
2023/03/28 13:46:48;;;;;;;2.70;1.10;;;6.90;95.10;;;;;;5061797;28;20531;-49
2023/03/28 13:49:27;;;;;;;3.88;1.10;;;7.10;93.70;;;;;;5056225;28;20114;-49
2023/03/28 13:52:09;;;;;;;3.72;1.20;;;7.20;94.10;;;;;;5078145;28;20056;-50